createdAt,value
2019-04-14T00:01:36.957Z,100649.83
2019-04-14T00:04:13.983Z,100653.59
2019-04-14T00:06:41.900Z,100653.86
2019-04-14T00:09:07.974Z,100651.58
2019-04-14T00:11:42.249Z,100639.17
2019-04-14T00:14:09.727Z,100644.94
2019-04-14T00:16:36.442Z,100639.42
2019-04-14T00:19:04.372Z,100639.73
2019-04-14T00:21:30.400Z,100634.59
2019-04-14T00:23:56.680Z,100639.17
2019-04-14T00:26:27.195Z,100627.41
2019-04-14T00:28:53.492Z,100633.42
2019-04-14T00:31:19.580Z,100637.47
2019-04-14T00:33:47.490Z,100635.09
2019-04-14T00:36:21.892Z,100624.16
2019-04-14T00:38:50.009Z,100621.10
2019-04-14T00:41:39.488Z,100616.75
2019-04-14T00:44:03.616Z,100619.09
2019-04-14T00:46:40.847Z,100619.69
2019-04-14T00:49:07.043Z,100618.00
2019-04-14T00:51:33.297Z,100614.64
2019-04-14T00:54:00.258Z,100624.92
2019-04-14T00:56:27.875Z,100622.72
2019-04-14T00:58:53.945Z,100622.91
2019-04-14T01:01:20.242Z,100620.16
2019-04-14T01:03:46.962Z,100620.43
2019-04-14T01:06:14.279Z,100616.94
2019-04-14T01:08:40.446Z,100617.22
2019-04-14T01:11:07.359Z,100620.28
2019-04-14T01:13:33.918Z,100614.46
2019-04-14T01:16:09.814Z,100616.05
2019-04-14T01:18:27.653Z,100612.63
2019-04-14T01:20:54.158Z,100610.24
2019-04-14T01:23:21.551Z,100604.03
2019-04-14T01:25:47.765Z,100607.48
2019-04-14T01:28:14.346Z,100614.83
2019-04-14T01:30:41.564Z,100616.76
2019-04-14T01:33:07.810Z,100617.03
2019-04-14T01:35:35.657Z,100619.69
2019-04-14T01:38:01.630Z,100624.00
2019-04-14T01:40:29.190Z,100622.91
2019-04-14T01:42:54.943Z,100628.08
2019-04-14T01:45:21.454Z,100623.77
2019-04-14T01:47:48.948Z,100623.13
2019-04-14T01:50:14.953Z,100616.61
2019-04-14T01:52:50.385Z,100621.66
2019-04-14T01:55:28.791Z,100625.62
2019-04-14T01:57:58.902Z,100629.58
2019-04-14T02:00:36.225Z,100616.78
2019-04-14T02:03:04.043Z,100625.42
2019-04-14T02:05:29.978Z,100617.49
2019-04-14T02:07:56.413Z,100621.34
2019-04-14T02:10:23.893Z,100619.97
2019-04-14T02:12:49.878Z,100619.72
2019-04-14T02:15:17.722Z,100617.25
2019-04-14T02:17:43.866Z,100616.66
2019-04-14T02:20:10.191Z,100611.95
2019-04-14T02:22:37.623Z,100610.94
2019-04-14T02:25:03.735Z,100615.06
2019-04-14T02:27:31.678Z,100614.52
2019-04-14T02:29:58.288Z,100610.58
2019-04-14T02:32:55.017Z,100627.58
2019-04-14T02:35:22.775Z,100624.74
2019-04-14T02:37:46.552Z,100613.14
2019-04-14T02:40:08.746Z,100606.81
2019-04-14T02:45:10.619Z,100607.52
2019-04-14T02:49:56.602Z,100617.80
2019-04-14T02:52:28.204Z,100626.80
2019-04-14T02:57:30.958Z,100631.94
2019-04-14T02:59:43.238Z,100624.04
2019-04-14T03:04:41.394Z,100631.50
2019-04-14T03:07:08.682Z,100625.90
2019-04-14T03:09:38.902Z,100631.97
2019-04-14T03:12:09.143Z,100632.15
2019-04-14T03:19:35.255Z,100634.88
2019-04-14T03:22:13.117Z,100629.19
2019-04-14T03:24:42.146Z,100632.03
2019-04-14T03:27:24.905Z,100626.88
2019-04-14T03:29:59.734Z,100627.22
2019-04-14T03:32:38.996Z,100624.92
2019-04-14T03:34:52.264Z,100626.80
2019-04-14T03:37:39.589Z,100619.08
2019-04-14T03:39:42.723Z,100622.94
2019-04-14T03:42:08.710Z,100615.20
2019-04-14T03:44:39.183Z,100619.14
2019-04-14T03:47:08.715Z,100616.33
2019-04-14T03:54:15.630Z,100624.38
2019-04-14T03:56:33.455Z,100618.12
2019-04-14T03:58:59.812Z,100623.42
2019-04-14T04:01:25.925Z,100617.91
2019-04-14T04:03:52.645Z,100625.30
2019-04-14T04:06:20.263Z,100631.53
2019-04-14T04:08:46.469Z,100632.21
2019-04-14T04:11:12.874Z,100629.45
2019-04-14T04:13:39.618Z,100628.27
2019-04-14T04:16:13.833Z,100627.16
2019-04-14T04:18:51.274Z,100629.42
2019-04-14T04:21:11.931Z,100627.22
2019-04-14T04:23:44.706Z,100634.00
2019-04-14T04:26:26.170Z,100635.48
2019-04-14T04:29:02.766Z,100630.47
2019-04-14T04:31:35.026Z,100629.61
2019-04-14T04:34:09.808Z,100637.00
2019-04-14T04:36:42.294Z,100636.27
2019-04-14T04:39:13.418Z,100635.89
2019-04-14T04:41:40.753Z,100635.20
2019-04-14T04:44:07.208Z,100647.45
2019-04-14T04:46:33.611Z,100658.73
2019-04-14T04:49:09.890Z,100661.63
2019-04-14T04:51:27.099Z,100670.91
2019-04-14T04:53:54.826Z,100666.18
2019-04-14T04:56:20.850Z,100673.02
2019-04-14T04:58:48.031Z,100675.03
2019-04-14T05:01:14.492Z,100671.05
2019-04-14T05:03:40.894Z,100679.67
2019-04-14T05:06:15.389Z,100677.28
2019-04-14T05:08:48.092Z,100670.95
2019-04-14T05:11:20.990Z,100684.80
2019-04-14T05:13:48.985Z,100688.21
2019-04-14T05:16:15.163Z,100679.25
2019-04-14T05:18:41.957Z,100682.32
2019-04-14T05:21:08.637Z,100682.31
2019-04-14T05:23:36.598Z,100683.23
2019-04-14T05:26:02.740Z,100686.55
2019-04-14T05:28:28.943Z,100687.80
2019-04-14T05:30:56.768Z,100687.92
2019-04-14T05:33:22.856Z,100679.14
2019-04-14T05:35:49.050Z,100668.98
2019-04-14T05:38:16.842Z,100667.95
2019-04-14T05:40:42.906Z,100679.08
2019-04-14T05:43:09.325Z,100675.22
2019-04-14T05:45:37.242Z,100679.73
2019-04-14T05:48:03.246Z,100685.09
2019-04-14T05:50:29.617Z,100684.04
2019-04-14T05:52:56.346Z,100686.91
2019-04-14T05:55:24.086Z,100687.91
2019-04-14T05:57:50.237Z,100703.97
2019-04-14T06:00:19.090Z,100693.69
2019-04-14T06:02:44.775Z,100693.82
2019-04-14T06:05:12.949Z,100694.39
2019-04-14T06:07:38.285Z,100705.05
2019-04-14T06:10:05.301Z,100702.70
2019-04-14T06:12:32.050Z,100698.77
2019-04-14T06:14:58.793Z,100707.34
2019-04-14T06:17:25.558Z,100702.42
2019-04-14T06:19:52.337Z,100702.88
2019-04-14T06:22:19.102Z,100703.16
2019-04-14T06:24:45.837Z,100709.68
2019-04-14T06:27:12.614Z,100706.22
2019-04-14T06:29:39.403Z,100704.29
2019-04-14T06:32:25.789Z,100699.67
2019-04-14T06:35:12.119Z,100708.73
2019-04-14T06:37:45.366Z,100706.92
2019-04-14T06:40:12.095Z,100712.19
2019-04-14T06:42:38.844Z,100710.45
2019-04-14T06:45:05.584Z,100712.73
2019-04-14T06:47:32.358Z,100713.20
2019-04-14T06:49:59.249Z,100710.53
2019-04-14T06:52:25.985Z,100713.68
2019-04-14T06:54:52.706Z,100713.23
2019-04-14T06:57:19.481Z,100712.04
2019-04-14T06:59:46.207Z,100706.07
2019-04-14T07:02:12.938Z,100701.67
2019-04-14T07:04:39.675Z,100710.88
2019-04-14T07:07:06.410Z,100716.66
2019-04-14T07:09:33.142Z,100717.23
2019-04-14T07:11:59.973Z,100714.75
2019-04-14T07:14:26.626Z,100714.33
2019-04-14T07:16:53.359Z,100717.45
2019-04-14T07:19:21.098Z,100714.98
2019-04-14T07:21:47.830Z,100723.17
2019-04-14T07:24:14.570Z,100723.05
2019-04-14T07:26:41.288Z,100721.65
2019-04-14T07:29:08.076Z,100726.63
2019-04-14T07:31:43.566Z,100719.88
2019-04-14T07:34:30.742Z,100719.81
2019-04-14T07:37:19.142Z,100708.79
2019-04-14T07:39:51.711Z,100716.88
2019-04-14T07:42:24.743Z,100717.86
2019-04-14T07:44:59.310Z,100723.69
2019-04-14T07:47:29.910Z,100721.20
2019-04-14T07:50:14.503Z,100723.03
2019-04-14T07:52:54.797Z,100723.69
2019-04-14T07:55:41.918Z,100723.32
2019-04-14T07:58:20.430Z,100721.37
2019-04-14T08:00:57.950Z,100720.23
2019-04-14T08:03:32.222Z,100722.20
2019-04-14T08:05:58.943Z,100715.75
2019-04-14T08:08:25.686Z,100720.97
2019-04-14T08:10:52.402Z,100723.03
2019-04-14T08:13:19.146Z,100722.41
2019-04-14T08:15:45.868Z,100712.69
2019-04-14T08:18:12.614Z,100718.52
2019-04-14T08:20:39.384Z,100721.90
2019-04-14T08:23:06.097Z,100729.13
2019-04-14T08:25:32.822Z,100730.88
2019-04-14T08:27:59.594Z,100721.75
2019-04-14T08:30:26.351Z,100727.38
2019-04-14T08:32:54.188Z,100731.42
2019-04-14T08:35:20.914Z,100732.81
2019-04-14T08:37:47.788Z,100722.51
2019-04-14T08:40:14.578Z,100721.69
2019-04-14T08:43:06.069Z,100724.73
2019-04-14T08:45:53.211Z,100724.38
2019-04-14T08:48:31.773Z,100726.68
2019-04-14T08:51:04.273Z,100726.15
2019-04-14T08:53:40.854Z,100734.97
2019-04-14T08:56:13.266Z,100734.78
2019-04-14T08:58:49.502Z,100740.67
2019-04-14T09:01:23.650Z,100737.68
2019-04-14T09:03:56.178Z,100737.68
2019-04-14T09:06:33.570Z,100740.99
2019-04-14T09:09:09.768Z,100739.59
2019-04-14T09:11:43.418Z,100742.59
2019-04-14T09:14:10.199Z,100738.40
2019-04-14T09:16:36.926Z,100745.87
2019-04-14T09:19:07.795Z,100741.53
2019-04-14T09:21:30.434Z,100749.48
2019-04-14T09:23:57.278Z,100734.74
2019-04-14T09:26:24.030Z,100728.47
2019-04-14T09:28:50.790Z,100730.69
2019-04-14T09:31:17.576Z,100737.05
2019-04-14T09:33:44.334Z,100727.73
2019-04-14T09:36:11.078Z,100711.75
2019-04-14T09:38:37.951Z,100726.53
2019-04-14T09:41:04.682Z,100728.29
2019-04-14T09:43:31.438Z,100732.47
2019-04-14T09:45:58.195Z,100733.64
2019-04-14T09:48:24.926Z,100732.22
2019-04-14T09:51:03.894Z,100724.94
2019-04-14T09:53:19.267Z,100729.13
2019-04-14T09:55:45.994Z,100732.59
2019-04-14T09:58:12.739Z,100739.30
2019-04-14T10:00:40.371Z,100738.00
2019-04-14T10:03:07.334Z,100729.34
2019-04-14T10:05:34.057Z,100736.62
2019-04-14T10:08:00.794Z,100736.86
2019-04-14T10:10:27.574Z,100734.40
2019-04-14T10:12:54.434Z,100734.14
2019-04-14T10:15:21.171Z,100726.69
2019-04-14T10:17:47.929Z,100731.59
2019-04-14T10:20:14.990Z,100742.44
2019-04-14T10:22:41.726Z,100738.19
2019-04-14T10:25:08.482Z,100748.06
2019-04-14T10:27:35.261Z,100742.00
2019-04-14T10:30:02.179Z,100724.39
2019-04-14T10:32:28.910Z,100724.41
2019-04-14T10:34:55.656Z,100732.00
2019-04-14T10:37:22.394Z,100718.43
2019-04-14T10:39:49.381Z,100720.23
2019-04-14T10:42:16.222Z,100724.50
2019-04-14T10:44:43.078Z,100713.67
2019-04-14T10:47:09.806Z,100712.22
2019-04-14T10:49:36.558Z,100701.66
2019-04-14T10:52:03.376Z,100701.21
2019-04-14T10:54:30.122Z,100706.66
2019-04-14T10:56:56.865Z,100713.33
2019-04-14T10:59:23.602Z,100704.28
2019-04-14T11:01:51.460Z,100705.89
2019-04-14T11:04:18.242Z,100698.15
2019-04-14T11:06:54.529Z,100705.31
2019-04-14T11:09:21.270Z,100699.41
2019-04-14T11:11:47.989Z,100692.45
2019-04-14T11:14:14.818Z,100701.10
2019-04-14T11:16:41.564Z,100702.28
2019-04-14T11:19:08.313Z,100687.76
2019-04-14T11:21:42.340Z,100694.94
2019-04-14T11:24:01.865Z,100683.83
2019-04-14T11:26:28.604Z,100688.83
2019-04-14T11:28:55.346Z,100679.71
2019-04-14T11:31:27.849Z,100676.72
2019-04-14T11:33:59.538Z,100669.86
2019-04-14T11:36:46.717Z,100660.61
2019-04-14T11:39:14.445Z,100668.36
2019-04-14T11:41:41.142Z,100668.00
2019-04-14T11:44:07.928Z,100661.77
2019-04-14T11:46:34.626Z,100660.37
2019-04-14T11:49:01.437Z,100657.38
2019-04-14T11:51:28.225Z,100660.21
2019-04-14T11:53:54.962Z,100656.38
2019-04-14T11:56:21.693Z,100663.05
2019-04-14T11:58:48.441Z,100654.64
2019-04-14T12:01:34.774Z,100660.77
2019-04-14T12:04:08.460Z,100666.16
2019-04-14T12:06:57.846Z,100663.84
2019-04-14T12:09:29.176Z,100673.21
2019-04-14T12:11:55.918Z,100671.59
2019-04-14T12:14:22.695Z,100679.73
2019-04-14T12:16:49.506Z,100681.52
2019-04-14T12:19:16.171Z,100679.48
2019-04-14T12:21:42.898Z,100678.80
2019-04-14T12:24:09.678Z,100670.86
2019-04-14T12:26:36.497Z,100663.00
2019-04-14T12:29:05.174Z,100658.63
2019-04-14T12:31:30.892Z,100658.66
2019-04-14T12:33:56.725Z,100662.86
2019-04-14T12:36:23.446Z,100655.79
2019-04-14T12:38:50.298Z,100655.84
2019-04-14T12:41:22.625Z,100667.25
2019-04-14T12:43:59.114Z,100667.81
2019-04-14T12:46:34.838Z,100678.33
2019-04-14T12:49:08.318Z,100676.19
2019-04-14T12:51:37.746Z,100670.02
2019-04-14T12:54:04.578Z,100659.91
2019-04-14T12:56:31.300Z,100668.21
2019-04-14T12:59:17.663Z,100662.97
2019-04-14T13:01:49.738Z,100658.57
2019-04-14T13:04:16.581Z,100665.56
2019-04-14T13:06:43.318Z,100659.84
2019-04-14T13:09:10.189Z,100668.23
2019-04-14T13:11:36.921Z,100667.47
2019-04-14T13:14:03.642Z,100656.62
2019-04-14T13:16:30.782Z,100654.36
2019-04-14T13:18:57.514Z,100648.36
2019-04-14T13:21:24.257Z,100644.16
2019-04-14T13:23:50.974Z,100639.02
2019-04-14T13:26:17.728Z,100642.91
2019-04-14T13:28:44.442Z,100639.31
2019-04-14T13:31:11.207Z,100633.02
2019-04-14T13:33:38.113Z,100637.94
2019-04-14T13:36:04.941Z,100641.64
2019-04-14T13:38:31.800Z,100628.28
2019-04-14T13:40:58.542Z,100623.25
2019-04-14T13:43:25.258Z,100618.95
2019-04-14T13:45:52.078Z,100629.25
2019-04-14T13:48:18.801Z,100615.28
2019-04-14T13:50:45.551Z,100629.28
2019-04-14T13:53:12.265Z,100639.16
2019-04-14T13:55:39.047Z,100627.13
2019-04-14T13:58:05.785Z,100628.58
2019-04-14T14:00:32.545Z,100625.53
2019-04-14T14:02:59.350Z,100629.87
2019-04-14T14:05:26.097Z,100618.67
2019-04-14T14:07:52.817Z,100612.95
2019-04-14T14:10:19.562Z,100611.98
2019-04-14T14:12:53.531Z,100598.84
2019-04-14T14:15:42.822Z,100599.16
2019-04-14T14:18:15.366Z,100593.84
2019-04-14T14:20:48.467Z,100584.98
2019-04-14T14:23:27.662Z,100577.80
2019-04-14T14:25:56.715Z,100578.97
2019-04-14T14:28:23.448Z,100589.72
2019-04-14T14:30:50.195Z,100592.52
2019-04-14T14:33:16.918Z,100583.76
2019-04-14T14:35:43.650Z,100583.47
2019-04-14T14:38:10.386Z,100576.59
2019-04-14T14:40:37.134Z,100588.23
2019-04-14T14:43:03.889Z,100573.55
2019-04-14T14:45:37.085Z,100593.13
2019-04-14T14:48:14.665Z,100590.20
2019-04-14T14:51:01.014Z,100606.95
2019-04-14T14:53:27.849Z,100584.26
2019-04-14T14:55:54.589Z,100594.03
2019-04-14T14:58:21.325Z,100591.94
2019-04-14T15:00:48.070Z,100580.67
2019-04-14T15:03:14.795Z,100584.78
2019-04-14T15:05:41.548Z,100579.30
2019-04-14T15:08:08.258Z,100582.11
2019-04-14T15:10:35.082Z,100583.08
2019-04-14T15:13:01.802Z,100592.32
2019-04-14T15:15:28.696Z,100592.98
2019-04-14T15:17:55.413Z,100598.97
2019-04-14T15:20:22.161Z,100596.96
2019-04-14T15:23:01.201Z,100610.67
2019-04-14T15:25:27.758Z,100608.35
2019-04-14T15:27:54.503Z,100611.64
2019-04-14T15:30:21.498Z,100614.62
2019-04-14T15:32:48.250Z,100609.73
2019-04-14T15:35:14.974Z,100608.36
2019-04-14T15:37:41.726Z,100613.69
2019-04-14T15:40:08.438Z,100617.89
2019-04-14T15:42:35.245Z,100627.43
2019-04-14T15:45:01.974Z,100629.92
2019-04-14T15:47:28.691Z,100621.43
2019-04-14T15:49:55.422Z,100617.82
2019-04-14T15:52:22.170Z,100628.10
2019-04-14T15:54:48.894Z,100617.63
2019-04-14T15:57:23.446Z,100620.61
2019-04-14T15:59:53.836Z,100611.86
2019-04-14T16:02:29.188Z,100619.83
2019-04-14T16:05:03.551Z,100623.30
2019-04-14T16:07:37.752Z,100620.28
2019-04-14T16:10:11.626Z,100621.81
2019-04-14T16:12:45.149Z,100631.94
2019-04-14T16:15:17.646Z,100624.41
2019-04-14T16:17:50.611Z,100630.27
2019-04-14T16:20:22.147Z,100638.05
2019-04-14T16:22:48.883Z,100632.23
2019-04-14T16:25:15.614Z,100633.52
2019-04-14T16:27:48.050Z,100635.17
2019-04-14T16:30:25.455Z,100636.80
2019-04-14T16:33:09.138Z,100651.34
2019-04-14T16:35:35.903Z,100655.83
2019-04-14T16:38:02.654Z,100658.48
2019-04-14T16:40:29.366Z,100651.61
2019-04-14T16:42:56.137Z,100659.42
2019-04-14T16:45:22.854Z,100656.38
2019-04-14T16:47:49.616Z,100655.47
2019-04-14T16:50:16.363Z,100646.30
2019-04-14T16:52:47.471Z,100663.56
2019-04-14T16:55:19.505Z,100662.94
2019-04-14T16:58:07.726Z,100670.20
2019-04-14T17:00:37.267Z,100676.32
2019-04-14T17:03:03.606Z,100676.05
2019-04-14T17:05:30.334Z,100675.55
2019-04-14T17:07:57.190Z,100694.38
2019-04-14T17:10:23.902Z,100693.22
2019-04-14T17:12:50.680Z,100714.38
2019-04-14T17:15:39.352Z,100714.92
2019-04-14T17:18:27.583Z,100711.41
2019-04-14T17:21:02.995Z,100725.20
2019-04-14T17:23:40.002Z,100733.83
2019-04-14T17:26:11.322Z,100732.83
2019-04-14T17:28:42.898Z,100743.16
2019-04-14T17:31:15.326Z,100747.42
2019-04-14T17:33:49.300Z,100763.96
2019-04-14T17:36:21.809Z,100764.48
2019-04-14T17:38:54.222Z,100772.20
2019-04-14T17:41:29.355Z,100773.16
2019-04-14T17:44:02.284Z,100786.98
2019-04-14T17:46:52.545Z,100799.47
2019-04-14T17:49:31.179Z,100801.86
2019-04-14T17:52:04.879Z,100807.67
2019-04-14T17:54:36.422Z,100818.70
2019-04-14T17:57:27.642Z,100815.28
2019-04-14T18:00:02.051Z,100832.55
2019-04-14T18:02:34.515Z,100824.60
2019-04-14T18:05:06.275Z,100837.25
2019-04-14T18:07:39.574Z,100832.91
2019-04-14T18:10:19.872Z,100845.30
2019-04-14T18:12:58.659Z,100840.09
2019-04-14T18:15:34.028Z,100852.25
2019-04-14T18:18:06.677Z,100849.33
2019-04-14T18:20:38.617Z,100858.39
2019-04-14T18:23:05.392Z,100865.95
2019-04-14T18:25:32.125Z,100867.02
2019-04-14T18:28:22.390Z,100871.63
2019-04-14T18:30:55.616Z,100871.97
2019-04-14T18:33:44.107Z,100881.52
2019-04-14T18:36:16.722Z,100891.30
2019-04-14T18:38:50.210Z,100890.13
2019-04-14T18:41:24.919Z,100894.28
2019-04-14T18:44:13.239Z,100894.02
2019-04-14T18:46:48.442Z,100903.71
2019-04-14T18:49:20.282Z,100903.22
2019-04-14T18:52:08.458Z,100913.59
2019-04-14T18:54:54.114Z,100916.17
2019-04-14T18:57:15.775Z,100925.69
2019-04-14T18:59:52.283Z,100926.47
2019-04-14T19:02:19.710Z,100934.30
2019-04-14T19:04:47.190Z,100936.17
2019-04-14T19:07:14.405Z,100942.28
2019-04-14T19:09:41.134Z,100950.13
2019-04-14T19:12:14.200Z,100956.48
2019-04-14T19:14:40.947Z,100963.41
2019-04-14T19:17:11.778Z,100964.91
2019-04-14T19:19:40.662Z,100961.84
2019-04-14T19:22:07.432Z,100963.59
2019-04-14T19:24:34.627Z,100976.88
2019-04-14T19:27:02.404Z,100974.70
2019-04-14T19:29:29.832Z,100995.20
2019-04-14T19:31:56.586Z,100982.92
2019-04-14T19:34:24.143Z,100987.94
2019-04-14T19:36:50.892Z,100982.40
2019-04-14T19:39:17.631Z,100989.01
2019-04-14T19:41:44.392Z,100996.17
2019-04-14T19:44:11.959Z,101000.73
2019-04-14T19:46:38.767Z,100999.80
2019-04-14T19:49:05.507Z,101011.06
2019-04-14T19:51:32.267Z,101009.77
2019-04-14T19:53:59.004Z,101012.14
2019-04-14T19:56:25.992Z,101020.48
2019-04-14T19:58:52.758Z,101024.08
2019-04-14T20:01:19.527Z,101028.96
2019-04-14T20:03:46.274Z,101033.96
2019-04-14T20:06:13.014Z,101028.53
2019-04-14T20:08:39.865Z,101034.64
2019-04-14T20:11:06.595Z,101033.20
2019-04-14T20:13:37.259Z,101041.54
2019-04-14T20:16:16.099Z,101035.72
2019-04-14T20:18:53.870Z,101036.55
2019-04-14T20:21:38.527Z,101044.13
2019-04-14T20:24:11.274Z,101038.41
2019-04-14T20:26:46.063Z,101039.92
2019-04-14T20:29:16.743Z,101045.05
2019-04-14T20:31:48.222Z,101054.77
2019-04-14T20:34:14.997Z,101051.88
2019-04-14T20:36:41.743Z,101053.99
2019-04-14T20:39:12.194Z,101042.67
2019-04-14T20:41:38.941Z,101050.71
2019-04-14T20:44:05.666Z,101054.92
2019-04-14T20:46:32.410Z,101050.97
2019-04-14T20:48:59.172Z,101057.84
2019-04-14T20:51:25.917Z,101058.31
2019-04-14T20:53:52.662Z,101063.06
2019-04-14T20:56:19.397Z,101061.66
2019-04-14T20:58:46.142Z,101063.77
2019-04-14T21:01:12.865Z,101064.31
2019-04-14T21:03:53.393Z,101069.20
2019-04-14T21:06:30.035Z,101071.63
2019-04-14T21:09:07.110Z,101074.31
2019-04-14T21:11:39.679Z,101073.02
2019-04-14T21:14:14.114Z,101081.72
2019-04-14T21:16:46.157Z,101073.87
2019-04-14T21:19:17.834Z,101078.67
2019-04-14T21:21:51.229Z,101083.98
2019-04-14T21:24:40.494Z,101090.09
2019-04-14T21:27:15.259Z,101093.44
2019-04-14T21:29:47.737Z,101094.63
2019-04-14T21:32:18.514Z,101095.48
2019-04-14T21:35:05.698Z,101091.20
2019-04-14T21:37:46.526Z,101094.15
2019-04-14T21:40:18.570Z,101096.84
2019-04-14T21:42:45.363Z,101089.38
2019-04-14T21:45:12.033Z,101086.42
2019-04-14T21:47:38.771Z,101090.37
2019-04-14T21:50:05.514Z,101090.82
2019-04-14T21:52:36.451Z,101087.98
2019-04-14T21:55:03.186Z,101081.36
2019-04-14T21:57:36.393Z,101083.91
2019-04-14T22:00:09.466Z,101079.39
2019-04-14T22:03:01.870Z,101079.76
2019-04-14T22:05:36.654Z,101081.13
2019-04-14T22:08:14.248Z,101096.20
2019-04-14T22:10:46.418Z,101095.56
2019-04-14T22:13:13.154Z,101093.10
2019-04-14T22:15:39.882Z,101094.66
2019-04-14T22:18:06.642Z,101095.42
2019-04-14T22:20:33.367Z,101096.72
2019-04-14T22:23:00.110Z,101105.96
2019-04-14T22:25:26.846Z,101102.34
2019-04-14T22:27:53.597Z,101105.00
2019-04-14T22:30:20.339Z,101110.47
2019-04-14T22:32:47.078Z,101111.98
2019-04-14T22:35:13.821Z,101104.93
2019-04-14T22:37:40.553Z,101108.84
2019-04-14T22:40:07.301Z,101102.95
2019-04-14T22:42:34.026Z,101106.09
2019-04-14T22:45:00.778Z,101109.59
2019-04-14T22:47:27.499Z,101098.73
2019-04-14T22:49:54.347Z,101100.84
2019-04-14T22:52:21.088Z,101103.16
2019-04-14T22:54:47.826Z,101098.55
2019-04-14T22:57:14.566Z,101102.92
2019-04-14T22:59:41.321Z,101109.22
2019-04-14T23:02:12.561Z,101104.80
2019-04-14T23:04:48.280Z,101118.20
2019-04-14T23:07:33.992Z,101122.05
2019-04-14T23:10:08.759Z,101134.16
2019-04-14T23:12:48.097Z,101131.97
2019-04-14T23:15:20.643Z,101128.64
2019-04-14T23:18:03.074Z,101132.66
2019-04-14T23:20:53.972Z,101133.41
2019-04-14T23:23:43.370Z,101131.96
2019-04-14T23:26:10.136Z,101132.44
2019-04-14T23:28:36.872Z,101133.02
2019-04-14T23:31:03.601Z,101126.84
2019-04-14T23:33:30.337Z,101127.34
2019-04-14T23:35:57.097Z,101126.98
2019-04-14T23:38:23.821Z,101121.92
2019-04-14T23:40:50.561Z,101119.02
2019-04-14T23:43:17.330Z,101114.58
2019-04-14T23:45:44.058Z,101119.18
2019-04-14T23:48:10.814Z,101115.25
2019-04-14T23:50:37.537Z,101120.23
2019-04-14T23:53:04.255Z,101113.34
2019-04-14T23:55:31.008Z,101116.40
2019-04-14T23:57:57.747Z,101114.58
